createdAt,value
2022-09-03T00:02:03.832Z,8.73
2022-09-03T00:05:09.990Z,8.35
2022-09-03T00:08:31.490Z,8.18
2022-09-03T00:11:27.682Z,8.38
2022-09-03T00:14:28.214Z,8.27
2022-09-03T00:17:21.409Z,8.18
2022-09-03T00:20:17.922Z,8.05
2022-09-03T00:23:07.838Z,8.20
2022-09-03T00:26:01.651Z,7.75
2022-09-03T00:28:56.338Z,7.80
2022-09-03T00:31:56.338Z,8.05
2022-09-03T00:34:49.882Z,8.65
2022-09-03T00:37:38.242Z,8.32
2022-09-03T00:40:43.787Z,9.15
2022-09-03T00:43:56.775Z,9.43
2022-09-03T00:47:01.035Z,9.45
2022-09-03T00:49:57.503Z,8.88
2022-09-03T00:53:09.540Z,8.27
2022-09-03T00:56:20.690Z,9.05
2022-09-03T00:59:07.407Z,7.80
2022-09-03T01:02:03.147Z,7.88
2022-09-03T01:05:10.544Z,8.57
2022-09-03T01:08:21.183Z,8.23
2022-09-03T01:11:40.348Z,7.18
2022-09-03T01:14:34.966Z,6.78
2022-09-03T01:17:59.559Z,7.40
2022-09-03T01:21:18.701Z,7.32
2022-09-03T01:24:18.288Z,6.93
2022-09-03T01:27:43.927Z,8.23
2022-09-03T01:30:38.946Z,8.40
2022-09-03T01:33:38.435Z,7.68
2022-09-03T01:37:03.144Z,7.38
2022-09-03T01:40:02.952Z,7.82
2022-09-03T01:43:17.737Z,9.93
2022-09-03T01:46:13.885Z,10.43
2022-09-03T01:49:32.500Z,11.48
2022-09-03T01:52:34.143Z,10.60
2022-09-03T01:55:50.458Z,12.85
2022-09-03T01:58:45.327Z,15.00
2022-09-03T02:01:37.808Z,14.90
2022-09-03T02:04:26.794Z,14.02
2022-09-03T02:07:13.611Z,13.75
2022-09-03T02:10:02.374Z,13.13
2022-09-03T02:12:56.684Z,13.23
2022-09-03T02:15:46.416Z,13.18
2022-09-03T02:18:57.712Z,13.27
2022-09-03T02:21:51.201Z,12.32
2022-09-03T02:24:38.321Z,11.05
2022-09-03T02:27:25.281Z,12.60
2022-09-03T02:30:12.412Z,11.27
2022-09-03T02:32:59.976Z,12.20
2022-09-03T02:35:47.603Z,12.13
2022-09-03T02:38:35.334Z,15.65
2022-09-03T02:41:24.076Z,14.70
2022-09-03T02:44:19.977Z,16.23
2022-09-03T02:47:07.981Z,17.67
2022-09-03T02:49:54.725Z,16.40
2022-09-03T02:52:41.489Z,20.45
2022-09-03T02:55:29.020Z,19.65
2022-09-03T02:58:15.842Z,19.00
2022-09-03T03:01:03.142Z,16.52
2022-09-03T03:03:50.271Z,16.58
2022-09-03T03:06:37.116Z,16.08
2022-09-03T03:09:26.970Z,17.90
2022-09-03T03:12:13.854Z,16.10
2022-09-03T03:15:00.579Z,14.57
2022-09-03T03:17:47.373Z,14.60
2022-09-03T03:20:34.723Z,15.27
2022-09-03T03:23:21.606Z,14.55
2022-09-03T03:26:11.088Z,14.15
2022-09-03T03:29:00.728Z,12.68
2022-09-03T03:31:47.473Z,12.23
2022-09-03T03:34:34.243Z,11.82
2022-09-03T03:37:21.006Z,12.48
2022-09-03T03:40:08.387Z,12.15
2022-09-03T03:42:57.387Z,12.30
2022-09-03T03:45:44.276Z,12.50
2022-09-03T03:48:32.659Z,12.00
2022-09-03T03:51:19.846Z,12.98
2022-09-03T03:54:06.949Z,14.90
2022-09-03T03:56:55.785Z,18.75
2022-09-03T03:59:42.800Z,17.95
2022-09-03T04:02:29.626Z,18.88
2022-09-03T04:05:16.539Z,18.23
2022-09-03T04:08:06.492Z,18.52
2022-09-03T04:10:53.255Z,16.50
2022-09-03T04:13:42.156Z,14.60
2022-09-03T04:16:29.634Z,15.02
2022-09-03T04:19:17.071Z,13.13
2022-09-03T04:22:04.154Z,11.55
2022-09-03T04:24:50.902Z,11.35
2022-09-03T04:27:38.393Z,11.02
2022-09-03T04:30:25.220Z,10.85
2022-09-03T04:33:16.150Z,9.10
2022-09-03T04:36:24.549Z,8.55
2022-09-03T04:39:11.657Z,16.63
2022-09-03T04:42:00.089Z,17.80
2022-09-03T04:44:46.933Z,20.90
2022-09-03T04:47:33.711Z,22.10
2022-09-03T04:50:20.443Z,21.27
2022-09-03T04:53:08.246Z,21.50
2022-09-03T04:55:55.147Z,21.33
2022-09-03T04:58:44.358Z,22.92
2022-09-03T05:01:33.474Z,23.40
2022-09-03T05:04:20.276Z,21.50
2022-09-03T05:07:07.411Z,19.70
2022-09-03T05:09:54.460Z,18.48
2022-09-03T05:12:41.183Z,17.20
2022-09-03T05:15:29.755Z,16.67
2022-09-03T05:18:16.488Z,17.35
2022-09-03T05:21:15.121Z,19.35
2022-09-03T05:24:02.962Z,24.08
2022-09-03T05:29:36.408Z,20.45
2022-09-03T05:32:23.269Z,24.17
2022-09-03T05:35:10.999Z,26.27
2022-09-03T05:37:58.043Z,22.45
2022-09-03T05:40:44.792Z,21.40
2022-09-03T05:43:32.913Z,29.90
2022-09-03T05:46:20.506Z,32.53
2022-09-03T05:49:22.272Z,33.88
2022-09-03T05:52:10.083Z,31.80
2022-09-03T05:57:43.612Z,33.13
2022-09-03T06:00:40.133Z,32.58
2022-09-03T06:03:29.904Z,33.58
2022-09-03T06:06:19.141Z,30.70
2022-09-03T06:09:14.431Z,27.15
2022-09-03T06:12:03.827Z,26.92
2022-09-03T06:14:54.036Z,28.13
2022-09-03T06:17:43.609Z,37.30
2022-09-03T06:20:39.591Z,35.78
2022-09-03T06:23:36.468Z,35.00
2022-09-03T06:26:31.239Z,34.10
2022-09-03T06:29:22.029Z,33.65
2022-09-03T06:32:11.138Z,33.65
2022-09-03T06:34:57.871Z,30.23
2022-09-03T06:37:54.486Z,39.17
2022-09-03T06:40:51.547Z,32.05
2022-09-03T06:43:44.732Z,33.63
2022-09-03T06:46:38.796Z,36.30
2022-09-03T06:49:28.992Z,39.63
2022-09-03T06:52:17.828Z,37.25
2022-09-03T06:55:05.032Z,32.63
2022-09-03T06:57:59.953Z,33.50
2022-09-03T07:00:46.880Z,37.55
2022-09-03T07:03:38.093Z,34.30
2022-09-03T07:06:29.546Z,38.85
2022-09-03T07:09:21.551Z,35.08
2022-09-03T07:12:13.810Z,31.15
2022-09-03T07:15:00.586Z,28.55
2022-09-03T07:17:47.388Z,29.00
2022-09-03T07:20:39.874Z,26.85
2022-09-03T07:23:26.754Z,31.67
2022-09-03T07:26:19.971Z,30.95
2022-09-03T07:29:10.376Z,29.85
2022-09-03T07:31:59.362Z,32.60
2022-09-03T07:34:50.583Z,31.60
2022-09-03T07:37:40.417Z,28.23
2022-09-03T07:40:27.286Z,26.80
2022-09-03T07:43:18.587Z,24.38
2022-09-03T07:46:06.988Z,25.73
2022-09-03T07:48:58.169Z,29.40
2022-09-03T07:51:46.482Z,27.48
2022-09-03T07:54:36.410Z,28.58
2022-09-03T07:57:26.910Z,25.27
2022-09-03T08:00:14.605Z,23.10
2022-09-03T08:03:06.112Z,26.38
2022-09-03T08:05:52.888Z,24.33
2022-09-03T08:08:40.527Z,24.02
2022-09-03T08:11:28.495Z,23.63
2022-09-03T08:14:16.478Z,22.38
2022-09-03T08:17:03.461Z,21.35
2022-09-03T08:19:50.952Z,21.03
2022-09-03T08:22:40.127Z,23.35
2022-09-03T08:25:27.013Z,26.52
2022-09-03T08:28:16.203Z,27.50
2022-09-03T08:31:11.422Z,31.42
2022-09-03T08:34:06.912Z,32.35
2022-09-03T08:36:54.470Z,40.85
2022-09-03T08:39:41.358Z,40.50
2022-09-03T08:42:52.124Z,36.00
2022-09-03T08:45:39.390Z,35.55
2022-09-03T08:48:28.388Z,35.45
2022-09-03T08:51:18.171Z,32.85
2022-09-03T08:54:07.616Z,33.60
2022-09-03T08:57:00.071Z,30.88
2022-09-03T08:59:51.582Z,28.92
2022-09-03T09:03:01.030Z,26.27
2022-09-03T09:05:58.031Z,24.73
2022-09-03T09:09:01.813Z,19.70
2022-09-03T09:11:48.654Z,20.15
2022-09-03T09:14:46.994Z,19.60
2022-09-03T09:20:57.890Z,21.45
2022-09-03T09:23:50.050Z,17.05
2022-09-03T09:26:37.338Z,15.23
2022-09-03T09:29:28.021Z,14.98
2022-09-03T09:32:17.797Z,17.05
2022-09-03T09:35:11.401Z,18.45
2022-09-03T09:38:00.353Z,16.35
2022-09-03T09:40:47.224Z,13.75
2022-09-03T09:43:33.956Z,13.87
2022-09-03T09:46:23.370Z,13.95
2022-09-03T09:49:33.839Z,11.68
2022-09-03T09:52:25.670Z,12.88
2022-09-03T09:55:19.669Z,15.10
2022-09-03T09:58:14.533Z,15.00
2022-09-03T10:01:04.390Z,12.85
2022-09-03T10:04:00.117Z,12.60
2022-09-03T10:07:01.224Z,15.40
2022-09-03T10:10:02.480Z,13.95
2022-09-03T10:12:59.316Z,12.73
2022-09-03T10:15:51.394Z,13.63
2022-09-03T10:19:06.928Z,14.80
2022-09-03T10:22:18.085Z,13.30
2022-09-03T10:25:05.815Z,4.72
2022-09-03T10:27:56.728Z,2.95
2022-09-03T10:31:01.506Z,2.40
2022-09-03T10:34:14.153Z,2.50
2022-09-03T10:37:36.070Z,3.30
2022-09-03T10:41:03.171Z,3.15
2022-09-03T10:44:16.150Z,3.08
2022-09-03T10:47:12.707Z,3.58
2022-09-03T10:50:17.355Z,3.42
2022-09-03T10:53:22.050Z,3.55
2022-09-03T10:56:22.298Z,3.70
2022-09-03T10:59:09.047Z,3.70
2022-09-03T11:02:15.501Z,4.47
2022-09-03T11:05:07.663Z,4.63
2022-09-03T11:08:10.687Z,4.97
2022-09-03T11:11:09.397Z,8.38
2022-09-03T11:14:05.260Z,12.73
2022-09-03T11:16:59.009Z,21.35
2022-09-03T11:19:55.283Z,58.50
2022-09-03T11:22:46.955Z,27.85
2022-09-03T11:25:44.827Z,39.55
2022-09-03T11:28:42.162Z,121.50
2022-09-03T11:32:02.697Z,84.70
2022-09-03T11:34:52.051Z,14.27
2022-09-03T11:37:59.283Z,5.57
2022-09-03T11:41:25.836Z,3.90
2022-09-03T11:44:19.823Z,3.08
2022-09-03T11:47:51.271Z,2.55
2022-09-03T11:50:38.046Z,2.80
2022-09-03T11:53:28.321Z,2.27
2022-09-03T11:56:19.551Z,2.60
2022-09-03T11:59:19.471Z,2.40
2022-09-03T12:02:28.183Z,3.00
2022-09-03T12:05:27.698Z,3.70
2022-09-03T12:08:33.540Z,4.57
2022-09-03T12:11:39.259Z,7.15
2022-09-03T12:14:57.209Z,18.15
2022-09-03T12:17:49.174Z,15.73
2022-09-03T12:20:36.142Z,1.50
2022-09-03T12:26:24.600Z,0.50
2022-09-03T12:29:27.824Z,0.60
2022-09-03T12:32:18.657Z,0.50
2022-09-03T12:35:13.279Z,0.30
2022-09-03T12:38:09.300Z,0.60
2022-09-03T12:44:04.449Z,0.40
2022-09-03T12:50:11.560Z,0.60
2022-09-03T12:53:03.556Z,0.70
2022-09-03T12:56:03.099Z,0.70
2022-09-03T12:58:59.858Z,0.70
2022-09-03T13:01:54.612Z,0.70
2022-09-03T13:04:48.754Z,0.43
2022-09-03T13:07:38.921Z,0.43
2022-09-03T13:10:42.430Z,0.80
2022-09-03T13:13:35.491Z,0.82
2022-09-03T13:16:44.207Z,0.60
2022-09-03T13:20:08.874Z,0.80
2022-09-03T13:23:13.569Z,0.70
2022-09-03T13:26:14.232Z,0.70
2022-09-03T13:29:40.136Z,0.85
2022-09-03T13:32:43.590Z,0.40
2022-09-03T13:36:14.877Z,0.85
2022-09-03T13:39:07.450Z,0.70
2022-09-03T13:42:06.125Z,0.43
2022-09-03T13:45:00.378Z,1.00
2022-09-03T13:48:29.032Z,1.30
2022-09-03T13:51:37.045Z,0.90
2022-09-03T13:54:48.199Z,0.82
2022-09-03T13:57:57.264Z,0.80
2022-09-03T14:00:52.454Z,0.60
2022-09-03T14:03:44.631Z,0.68
2022-09-03T14:07:10.143Z,0.65
2022-09-03T14:10:06.047Z,0.60
2022-09-03T14:13:16.183Z,0.50
2022-09-03T14:16:25.840Z,0.50
2022-09-03T14:19:12.598Z,0.50
2022-09-03T14:22:06.942Z,0.47
2022-09-03T14:25:02.769Z,0.40
2022-09-03T14:27:50.495Z,0.50
2022-09-03T14:30:58.078Z,0.80
2022-09-03T14:33:45.189Z,0.60
2022-09-03T14:36:44.645Z,0.70
2022-09-03T14:39:39.861Z,0.73
2022-09-03T14:42:51.715Z,0.70
2022-09-03T14:45:44.674Z,0.90
2022-09-03T14:48:50.283Z,0.70
2022-09-03T14:52:04.524Z,0.90
2022-09-03T14:55:25.336Z,0.80
2022-09-03T14:58:12.085Z,1.10
2022-09-03T15:01:16.094Z,1.03
2022-09-03T15:04:33.110Z,1.50
2022-09-03T15:07:34.138Z,1.55
2022-09-03T15:10:30.300Z,1.45
2022-09-03T15:13:21.055Z,1.50
2022-09-03T15:16:36.492Z,1.67
2022-09-03T15:19:48.476Z,1.05
2022-09-03T15:22:49.822Z,2.00
2022-09-03T15:25:45.812Z,1.80
2022-09-03T15:28:54.386Z,2.00
2022-09-03T15:31:55.260Z,1.38
2022-09-03T15:35:04.332Z,1.75
2022-09-03T15:38:05.445Z,2.03
2022-09-03T15:40:56.982Z,1.92
2022-09-03T15:43:49.852Z,2.08
2022-09-03T15:47:05.307Z,2.30
2022-09-03T15:50:15.672Z,2.28
2022-09-03T15:53:32.923Z,2.40
2022-09-03T15:56:29.132Z,2.47
2022-09-03T15:59:26.498Z,2.58
2022-09-03T16:02:28.048Z,2.23
2022-09-03T16:05:43.464Z,2.80
2022-09-03T16:08:52.597Z,2.60
2022-09-03T16:11:52.263Z,2.50
2022-09-03T16:14:47.024Z,2.75
2022-09-03T16:17:36.156Z,2.80
2022-09-03T16:20:33.158Z,2.58
2022-09-03T16:23:19.866Z,2.40
2022-09-03T16:26:29.922Z,2.72
2022-09-03T16:29:19.298Z,2.97
2022-09-03T16:32:26.935Z,2.72
2022-09-03T16:35:35.583Z,2.42
2022-09-03T16:39:00.380Z,2.28
2022-09-03T16:42:14.521Z,2.63
2022-09-03T16:45:33.860Z,2.58
2022-09-03T16:51:52.198Z,2.70
2022-09-03T16:54:56.072Z,2.25
2022-09-03T16:58:15.273Z,2.30
2022-09-03T17:01:18.307Z,2.53
2022-09-03T17:04:35.480Z,2.38
2022-09-03T17:07:47.615Z,2.38
2022-09-03T17:11:08.833Z,2.80
2022-09-03T17:14:10.639Z,2.70
2022-09-03T17:17:25.508Z,2.78
2022-09-03T17:20:45.961Z,2.65
2022-09-03T17:24:02.422Z,2.58
2022-09-03T17:27:10.774Z,2.50
2022-09-03T17:30:06.094Z,2.28
2022-09-03T17:33:36.468Z,2.10
2022-09-03T17:36:28.170Z,2.40
2022-09-03T17:39:36.760Z,2.50
2022-09-03T17:42:28.990Z,2.10
2022-09-03T17:45:27.869Z,2.03
2022-09-03T17:48:14.925Z,2.35
2022-09-03T17:51:12.863Z,2.40
2022-09-03T17:54:48.074Z,2.30
2022-09-03T17:57:48.039Z,2.30
2022-09-03T18:00:58.715Z,2.40
2022-09-03T18:04:28.817Z,2.38
2022-09-03T18:07:44.144Z,1.98
2022-09-03T18:11:01.127Z,2.10
2022-09-03T18:14:09.583Z,2.50
2022-09-03T18:17:09.911Z,2.42
2022-09-03T18:20:21.784Z,2.50
2022-09-03T18:23:52.425Z,2.20
2022-09-03T18:27:11.384Z,2.10
2022-09-03T18:30:31.779Z,1.90
2022-09-03T18:33:42.135Z,2.10
2022-09-03T18:36:51.138Z,2.22
2022-09-03T18:39:59.657Z,2.78
2022-09-03T18:43:35.768Z,2.90
2022-09-03T18:50:48.491Z,3.70
2022-09-03T18:54:18.646Z,3.22
2022-09-03T18:57:40.612Z,3.28
2022-09-03T19:00:50.687Z,3.60
2022-09-03T19:04:40.141Z,3.65
2022-09-03T19:08:10.705Z,3.50
2022-09-03T19:11:28.134Z,3.80
2022-09-03T19:14:59.867Z,3.40
2022-09-03T19:18:41.687Z,2.85
2022-09-03T19:21:59.604Z,3.03
2022-09-03T19:25:13.135Z,3.10
2022-09-03T19:28:47.943Z,3.20
2022-09-03T19:32:34.350Z,3.72
2022-09-03T19:35:59.772Z,3.47
2022-09-03T19:39:21.353Z,4.15
2022-09-03T19:43:08.902Z,4.28
2022-09-03T19:46:53.050Z,4.97
2022-09-03T19:50:32.116Z,5.22
2022-09-03T19:53:40.582Z,5.03
2022-09-03T19:57:14.995Z,4.13
2022-09-03T20:00:29.421Z,4.45
2022-09-03T20:03:43.138Z,4.22
2022-09-03T20:06:52.228Z,4.40
2022-09-03T20:10:01.433Z,4.40
2022-09-03T20:12:52.240Z,4.88
2022-09-03T20:15:49.518Z,5.25
2022-09-03T20:18:51.348Z,4.47
2022-09-03T20:21:38.119Z,5.13
2022-09-03T20:24:39.979Z,4.72
2022-09-03T20:27:40.972Z,4.47
2022-09-03T20:31:08.566Z,4.22
2022-09-03T20:34:09.144Z,4.22
2022-09-03T20:37:09.472Z,4.40
2022-09-03T20:40:33.895Z,5.00
2022-09-03T20:43:26.720Z,4.28
2022-09-03T20:46:52.306Z,4.70
2022-09-03T20:50:10.165Z,4.57
2022-09-03T20:53:23.942Z,4.80
2022-09-03T20:56:15.503Z,4.88
2022-09-03T20:59:27.203Z,5.63
2022-09-03T21:02:30.140Z,5.38
2022-09-03T21:05:29.165Z,5.03
2022-09-03T21:08:46.325Z,5.30
2022-09-03T21:11:38.313Z,5.00
2022-09-03T21:14:54.194Z,4.93
2022-09-03T21:17:51.546Z,4.45
2022-09-03T21:21:12.421Z,3.88
2022-09-03T21:24:08.789Z,4.15
2022-09-03T21:27:20.828Z,4.35
2022-09-03T21:30:16.397Z,4.22
2022-09-03T21:33:12.167Z,4.00
2022-09-03T21:36:04.023Z,4.80
2022-09-03T21:39:24.720Z,4.50
2022-09-03T21:42:25.505Z,4.28
2022-09-03T21:45:25.144Z,4.30
2022-09-03T21:48:45.403Z,4.07
2022-09-03T21:51:58.681Z,4.75
2022-09-03T21:54:46.849Z,4.82
2022-09-03T21:57:52.186Z,4.90
2022-09-03T22:00:39.341Z,4.32
2022-09-03T22:03:28.830Z,4.25
2022-09-03T22:06:29.878Z,4.18
2022-09-03T22:09:41.968Z,4.03
2022-09-03T22:12:55.577Z,4.38
2022-09-03T22:15:52.447Z,4.13
2022-09-03T22:18:39.487Z,4.53
2022-09-03T22:21:32.131Z,4.37
2022-09-03T22:24:36.431Z,5.03
2022-09-03T22:27:28.818Z,4.10
2022-09-03T22:30:39.523Z,4.22
2022-09-03T22:33:45.611Z,4.22
2022-09-03T22:36:50.442Z,3.90
2022-09-03T22:39:46.114Z,3.58
2022-09-03T22:42:46.371Z,3.72
2022-09-03T22:46:04.661Z,3.55
2022-09-03T22:49:29.952Z,3.55
2022-09-03T22:52:32.711Z,3.00
2022-09-03T22:55:23.230Z,3.67
2022-09-03T22:58:38.931Z,4.10
2022-09-03T23:01:36.158Z,4.30
2022-09-03T23:04:43.889Z,4.00
2022-09-03T23:07:55.262Z,3.25
2022-09-03T23:11:07.618Z,3.00
2022-09-03T23:14:13.104Z,2.80
2022-09-03T23:17:13.038Z,2.42
2022-09-03T23:23:16.636Z,3.38
2022-09-03T23:26:13.478Z,3.05
2022-09-03T23:29:27.417Z,2.80
2022-09-03T23:32:19.921Z,3.00
2022-09-03T23:35:25.731Z,2.70
2022-09-03T23:38:35.895Z,2.72
2022-09-03T23:41:55.601Z,3.60
2022-09-03T23:45:08.570Z,3.70
2022-09-03T23:48:31.447Z,3.20
2022-09-03T23:51:50.831Z,3.50
2022-09-03T23:54:57.023Z,3.10
2022-09-03T23:58:06.259Z,3.10
